createdAt,value
2022-11-26T00:02:27.210Z,39.45
2022-11-26T00:04:57.163Z,42.80
2022-11-26T00:07:27.569Z,41.75
2022-11-26T00:09:56.926Z,48.15
2022-11-26T00:12:29.385Z,48.72
2022-11-26T00:14:58.754Z,48.95
2022-11-26T00:17:26.386Z,47.95
2022-11-26T00:19:56.174Z,47.75
2022-11-26T00:22:31.778Z,48.40
2022-11-26T00:24:59.574Z,49.88
2022-11-26T00:27:28.432Z,49.88
2022-11-26T00:29:56.464Z,51.03
2022-11-26T00:32:26.608Z,46.10
2022-11-26T00:34:54.386Z,45.92
2022-11-26T00:37:29.735Z,47.50
2022-11-26T00:39:58.315Z,47.15
2022-11-26T00:42:25.608Z,52.08
2022-11-26T00:44:52.795Z,49.78
2022-11-26T00:47:20.000Z,50.55
2022-11-26T00:49:47.159Z,50.38
2022-11-26T00:52:35.554Z,47.65
2022-11-26T00:55:16.372Z,53.65
2022-11-26T00:57:43.954Z,47.33
2022-11-26T01:00:20.952Z,51.00
2022-11-26T01:02:48.794Z,48.85
2022-11-26T01:05:16.918Z,54.55
2022-11-26T01:07:45.617Z,49.65
2022-11-26T01:10:24.422Z,52.85
2022-11-26T01:12:53.434Z,50.15
2022-11-26T01:15:24.159Z,50.60
2022-11-26T01:17:53.076Z,47.40
2022-11-26T01:20:30.840Z,47.97
2022-11-26T01:22:59.364Z,42.13
2022-11-26T01:25:28.085Z,43.13
2022-11-26T01:27:55.535Z,50.05
2022-11-26T01:30:27.186Z,45.00
2022-11-26T01:32:54.504Z,44.95
2022-11-26T01:35:22.675Z,43.95
2022-11-26T01:37:50.567Z,42.70
2022-11-26T01:40:26.996Z,41.92
2022-11-26T01:43:00.420Z,43.60
2022-11-26T01:45:28.226Z,42.13
2022-11-26T01:47:55.390Z,42.00
2022-11-26T01:50:28.899Z,37.97
2022-11-26T01:53:19.646Z,36.67
2022-11-26T01:55:57.864Z,38.65
2022-11-26T01:58:39.653Z,37.15
2022-11-26T02:01:08.372Z,36.75
2022-11-26T02:03:43.908Z,33.80
2022-11-26T02:06:21.254Z,34.17
2022-11-26T02:08:48.632Z,34.42
2022-11-26T02:11:24.254Z,33.25
2022-11-26T02:13:56.734Z,31.88
2022-11-26T02:16:48.292Z,33.83
2022-11-26T02:19:49.610Z,33.05
2022-11-26T02:23:00.112Z,30.83
2022-11-26T02:25:48.396Z,31.95
2022-11-26T02:28:55.363Z,32.05
2022-11-26T02:31:36.264Z,31.92
2022-11-26T02:34:15.405Z,32.42
2022-11-26T02:36:55.925Z,32.58
2022-11-26T02:39:26.920Z,29.52
2022-11-26T02:41:58.804Z,27.65
2022-11-26T02:44:43.360Z,29.48
2022-11-26T02:47:15.556Z,30.15
2022-11-26T02:49:45.200Z,29.70
2022-11-26T02:52:15.419Z,25.30
2022-11-26T02:54:44.751Z,28.10
2022-11-26T02:57:17.516Z,28.45
2022-11-26T02:59:45.582Z,26.30
2022-11-26T03:02:32.486Z,27.80
2022-11-26T03:05:02.701Z,30.98
2022-11-26T03:07:32.663Z,27.63
2022-11-26T03:10:02.376Z,27.85
2022-11-26T03:12:30.297Z,29.65
2022-11-26T03:14:57.619Z,28.50
2022-11-26T03:17:24.844Z,28.85
2022-11-26T03:19:52.364Z,26.88
2022-11-26T03:22:19.577Z,30.58
2022-11-26T03:24:46.798Z,28.15
2022-11-26T03:27:13.978Z,31.20
2022-11-26T03:29:41.142Z,31.83
2022-11-26T03:32:08.527Z,33.65
2022-11-26T03:34:35.792Z,28.05
2022-11-26T03:37:03.149Z,30.30
2022-11-26T03:39:30.275Z,31.08
2022-11-26T03:41:57.462Z,29.27
2022-11-26T03:44:24.586Z,35.05
2022-11-26T03:46:51.733Z,28.95
2022-11-26T03:49:19.034Z,26.42
2022-11-26T03:51:46.139Z,27.63
2022-11-26T03:54:13.381Z,30.17
2022-11-26T03:56:40.551Z,28.42
2022-11-26T03:59:07.773Z,27.60
2022-11-26T04:01:35.007Z,25.95
2022-11-26T04:04:02.278Z,23.27
2022-11-26T04:06:29.453Z,24.33
2022-11-26T04:08:56.637Z,23.17
2022-11-26T04:11:23.787Z,24.70
2022-11-26T04:13:50.913Z,19.60
2022-11-26T04:16:18.139Z,22.60
2022-11-26T04:18:45.386Z,22.77
2022-11-26T04:21:12.575Z,22.63
2022-11-26T04:23:39.851Z,23.55
2022-11-26T04:26:07.049Z,21.20
2022-11-26T04:28:34.180Z,21.63
2022-11-26T04:31:01.642Z,21.85
2022-11-26T04:33:28.798Z,17.88
2022-11-26T04:35:56.249Z,19.77
2022-11-26T04:38:25.945Z,20.02
2022-11-26T04:40:53.431Z,25.42
2022-11-26T04:43:20.830Z,24.42
2022-11-26T04:45:48.069Z,30.27
2022-11-26T04:48:15.567Z,29.25
2022-11-26T04:50:42.675Z,27.95
2022-11-26T04:53:09.921Z,36.80
2022-11-26T04:55:37.548Z,39.65
2022-11-26T04:58:04.786Z,37.63
2022-11-26T05:00:31.955Z,38.17
2022-11-26T05:02:59.183Z,38.20
2022-11-26T05:05:26.402Z,38.65
2022-11-26T05:07:53.695Z,35.60
2022-11-26T05:10:21.010Z,32.83
2022-11-26T05:12:48.176Z,34.92
2022-11-26T05:15:15.415Z,33.83
2022-11-26T05:17:42.674Z,29.95
2022-11-26T05:20:10.909Z,28.75
2022-11-26T05:22:38.065Z,27.38
2022-11-26T05:25:05.500Z,28.95
2022-11-26T05:27:32.727Z,23.73
2022-11-26T05:30:00.039Z,22.92
2022-11-26T05:32:27.709Z,24.48
2022-11-26T05:34:59.865Z,23.58
2022-11-26T05:37:27.460Z,25.02
2022-11-26T05:39:54.638Z,26.33
2022-11-26T05:42:22.028Z,25.90
2022-11-26T05:44:49.126Z,30.45
2022-11-26T05:47:16.294Z,31.33
2022-11-26T05:49:43.467Z,36.08
2022-11-26T05:52:10.827Z,32.65
2022-11-26T05:54:38.256Z,31.48
2022-11-26T05:57:05.569Z,32.25
2022-11-26T05:59:32.675Z,30.60
2022-11-26T06:01:59.833Z,33.55
2022-11-26T06:04:27.008Z,32.42
2022-11-26T06:06:54.193Z,30.20
2022-11-26T06:09:22.052Z,32.17
2022-11-26T06:11:52.516Z,30.08
2022-11-26T06:14:22.779Z,30.70
2022-11-26T06:16:50.125Z,27.98
2022-11-26T06:19:17.368Z,30.02
2022-11-26T06:21:44.633Z,30.67
2022-11-26T06:24:12.172Z,30.75
2022-11-26T06:26:39.345Z,35.40
2022-11-26T06:29:06.599Z,34.85
2022-11-26T06:31:34.120Z,41.20
2022-11-26T06:34:01.435Z,39.85
2022-11-26T06:36:28.691Z,39.70
2022-11-26T06:38:55.812Z,49.35
2022-11-26T06:41:23.166Z,47.83
2022-11-26T06:46:34.992Z,44.28
2022-11-26T06:51:38.575Z,45.22
2022-11-26T06:54:05.843Z,48.03
2022-11-26T06:56:38.185Z,49.45
2022-11-26T06:59:06.053Z,49.60
2022-11-26T07:01:33.400Z,45.88
2022-11-26T07:31:30.217Z,43.90
2022-11-26T07:33:58.548Z,46.60
2022-11-26T07:36:28.960Z,45.78
2022-11-26T07:39:02.631Z,46.38
2022-11-26T07:41:31.624Z,45.03
2022-11-26T07:43:58.773Z,48.28
2022-11-26T07:46:27.156Z,47.70
2022-11-26T07:48:56.771Z,47.60
2022-11-26T07:51:31.872Z,43.58
2022-11-26T07:54:03.368Z,49.67
2022-11-26T07:56:30.771Z,44.72
2022-11-26T08:01:30.442Z,49.40
2022-11-26T08:04:01.648Z,48.90
2022-11-26T08:06:32.931Z,48.67
2022-11-26T08:09:09.192Z,46.50
2022-11-26T10:26:48.193Z,42.22
2022-11-26T10:46:34.572Z,41.88
2022-11-26T10:49:26.697Z,40.85
2022-11-26T10:52:04.100Z,37.67
2022-11-26T10:54:44.532Z,38.65
2022-11-26T11:00:39.378Z,38.28
2022-11-26T11:06:38.852Z,36.45
2022-11-26T11:09:26.372Z,37.65
2022-11-26T11:48:26.293Z,40.42
2022-11-26T11:54:03.067Z,38.47
2022-11-26T11:56:40.753Z,40.40
2022-11-26T12:02:39.447Z,44.95
2022-11-26T12:23:27.025Z,34.50
2022-11-26T12:26:30.188Z,33.38
2022-11-26T12:29:17.697Z,30.63
2022-11-26T12:32:05.159Z,30.58
2022-11-26T12:34:49.487Z,31.55
2022-11-26T12:44:31.195Z,28.02
2022-11-26T12:53:40.856Z,27.75
2022-11-26T12:59:00.358Z,32.97
2022-11-26T15:32:06.887Z,39.13
2022-11-26T15:56:45.857Z,36.05
2022-11-26T15:59:22.432Z,38.55
2022-11-26T16:01:50.693Z,33.70
2022-11-26T16:04:35.658Z,36.90
2022-11-26T16:07:16.597Z,32.63
2022-11-26T16:09:45.435Z,36.40
2022-11-26T16:12:34.343Z,42.80
2022-11-26T16:17:43.057Z,36.50
2022-11-26T16:20:27.400Z,37.47
2022-11-26T16:22:59.222Z,29.15
2022-11-26T16:25:34.462Z,33.53
2022-11-26T16:28:21.905Z,37.55
2022-11-26T16:30:49.156Z,33.25
2022-11-26T16:33:22.162Z,38.30
2022-11-26T16:36:02.274Z,40.67
2022-11-26T16:38:43.689Z,39.72
2022-11-26T16:41:30.321Z,50.13
2022-11-26T16:43:58.726Z,48.10
2022-11-26T16:46:28.104Z,50.25
2022-11-26T16:49:03.595Z,49.60
2022-11-26T16:51:31.674Z,52.67
2022-11-26T16:53:58.879Z,52.63
2022-11-26T16:56:39.503Z,44.42
2022-11-26T16:59:19.615Z,45.90
2022-11-26T17:01:47.150Z,42.00
2022-11-26T17:04:14.775Z,41.42
2022-11-26T17:06:43.292Z,42.60
2022-11-26T17:09:18.830Z,46.28
2022-11-26T17:11:46.727Z,42.05
2022-11-26T17:14:14.817Z,33.53
2022-11-26T17:16:42.173Z,36.17
2022-11-26T17:19:15.187Z,35.80
2022-11-26T17:21:42.704Z,37.95
2022-11-26T17:24:09.945Z,33.83
2022-11-26T17:26:37.380Z,48.03
2022-11-26T17:29:04.612Z,38.70
2022-11-26T17:31:31.905Z,44.42
2022-11-26T17:33:59.278Z,44.63
2022-11-26T17:36:26.583Z,46.33
2022-11-26T17:38:53.800Z,48.00
2022-11-26T17:41:21.158Z,40.03
2022-11-26T17:43:48.361Z,44.25
2022-11-26T17:46:20.029Z,30.17
2022-11-26T17:48:49.164Z,35.70
2022-11-26T17:51:16.790Z,31.88
2022-11-26T17:53:45.328Z,38.38
2022-11-26T17:56:27.128Z,36.67
2022-11-26T17:58:54.756Z,32.97
2022-11-26T18:01:22.338Z,32.83
2022-11-26T18:03:49.542Z,30.38
2022-11-26T18:06:39.289Z,30.75
2022-11-26T18:09:06.421Z,29.55
2022-11-26T18:11:53.536Z,29.30
2022-11-26T18:14:21.597Z,30.15
2022-11-26T18:16:49.959Z,31.40
2022-11-26T18:19:20.308Z,35.08
2022-11-26T18:21:50.739Z,32.38
2022-11-26T18:24:18.292Z,34.60
2022-11-26T18:26:45.501Z,33.25
2022-11-26T18:29:13.381Z,25.35
2022-11-26T18:34:32.952Z,26.42
2022-11-26T18:37:00.391Z,29.85
2022-11-26T18:39:28.661Z,25.85
2022-11-26T18:42:15.421Z,27.10
2022-11-26T18:44:44.051Z,31.60
2022-11-26T18:47:13.020Z,24.60
2022-11-26T18:49:44.525Z,25.20
2022-11-26T18:52:13.404Z,33.22
2022-11-26T18:54:41.370Z,32.72
2022-11-26T18:57:08.993Z,28.15
2022-11-26T18:59:37.043Z,25.92
2022-11-26T19:02:06.810Z,27.10
2022-11-26T19:04:38.444Z,29.90
2022-11-26T19:07:09.470Z,28.40
2022-11-26T19:09:40.515Z,30.17
2022-11-26T19:12:08.874Z,28.25
2022-11-26T19:14:36.184Z,30.98
2022-11-26T19:17:04.676Z,30.48
2022-11-26T19:19:33.239Z,27.60
2022-11-26T19:22:02.081Z,31.55
2022-11-26T19:24:31.006Z,28.48
2022-11-26T19:26:58.459Z,32.10
2022-11-26T19:29:25.906Z,31.50
2022-11-26T19:31:54.752Z,32.38
2022-11-26T19:34:25.385Z,35.42
2022-11-26T19:40:06.015Z,31.42
2022-11-26T19:45:12.741Z,29.55
2022-11-26T19:47:39.960Z,27.48
2022-11-26T19:50:09.433Z,29.80
2022-11-26T19:52:36.551Z,28.17
2022-11-26T19:55:04.492Z,30.00
2022-11-26T19:57:31.637Z,29.65
2022-11-26T19:59:58.848Z,27.85
2022-11-26T20:02:26.392Z,28.70
2022-11-26T20:04:53.667Z,29.83
2022-11-26T20:07:20.892Z,27.65
2022-11-26T20:09:52.432Z,26.92
2022-11-26T20:12:20.379Z,30.25
2022-11-26T20:14:49.574Z,28.48
2022-11-26T20:17:18.988Z,28.67
2022-11-26T20:19:46.708Z,28.48
2022-11-26T20:22:14.333Z,49.58
2022-11-26T20:24:42.777Z,33.92
2022-11-26T20:27:11.324Z,34.90
2022-11-26T20:29:39.731Z,44.67
2022-11-26T20:32:09.525Z,37.15
2022-11-26T20:34:53.616Z,33.90
2022-11-26T20:37:24.959Z,33.28
2022-11-26T20:39:53.272Z,31.92
2022-11-26T20:42:20.904Z,33.08
2022-11-26T20:44:49.745Z,40.35
2022-11-26T20:47:19.197Z,34.08
2022-11-26T20:49:47.735Z,31.55
2022-11-26T20:52:16.562Z,36.65
2022-11-26T20:54:50.813Z,34.78
2022-11-26T20:57:34.054Z,33.67
2022-11-26T21:00:14.456Z,35.22
2022-11-26T21:16:43.654Z,34.17
2022-11-26T21:28:26.117Z,37.78
2022-11-26T21:34:06.899Z,32.97
2022-11-26T21:47:42.258Z,30.27
2022-11-26T21:50:30.990Z,27.50
2022-11-26T21:58:34.514Z,36.03
2022-11-26T22:01:29.373Z,37.90
2022-11-26T22:06:32.337Z,33.80
2022-11-26T22:09:02.510Z,32.47
2022-11-26T22:11:55.903Z,30.00
2022-11-26T22:14:37.974Z,28.25
2022-11-26T22:17:07.853Z,29.42
2022-11-26T22:19:47.480Z,29.42
2022-11-26T22:22:17.022Z,27.67
2022-11-26T22:24:50.665Z,29.15
2022-11-26T22:27:25.978Z,30.30
2022-11-26T22:29:56.640Z,29.85
2022-11-26T22:32:39.670Z,30.45
2022-11-26T22:35:16.347Z,33.95
2022-11-26T22:37:54.060Z,33.55
2022-11-26T22:40:28.455Z,38.35
2022-11-26T22:43:00.738Z,36.33
2022-11-26T22:45:32.955Z,32.75
2022-11-26T22:48:07.276Z,36.75
2022-11-26T22:50:43.718Z,37.15
2022-11-26T22:53:13.036Z,30.73
2022-11-26T22:55:53.398Z,29.80
2022-11-26T22:58:24.942Z,28.50
2022-11-26T23:01:09.771Z,28.48
2022-11-26T23:06:13.809Z,25.92
2022-11-26T23:08:45.063Z,28.73
2022-11-26T23:11:19.769Z,26.75
2022-11-26T23:13:51.887Z,25.10
2022-11-26T23:16:25.686Z,27.17
2022-11-26T23:18:56.235Z,28.40
2022-11-26T23:21:33.688Z,30.17
2022-11-26T23:24:07.643Z,27.35
2022-11-26T23:26:38.733Z,27.05
2022-11-26T23:29:07.915Z,25.25
2022-11-26T23:31:44.512Z,26.30
2022-11-26T23:34:12.677Z,26.40
2022-11-26T23:36:39.952Z,30.45
2022-11-26T23:39:11.179Z,29.55
2022-11-26T23:41:38.396Z,26.40
2022-11-26T23:44:05.827Z,27.02
2022-11-26T23:46:35.445Z,28.35
2022-11-26T23:49:02.851Z,26.67
2022-11-26T23:51:32.356Z,27.77
2022-11-26T23:53:59.827Z,24.83
2022-11-26T23:56:31.576Z,25.70
2022-11-26T23:59:02.176Z,25.88
